sensor_id;sensor_type;location;lat;lon;timestamp;P1;durP1;ratioP1;P2;durP2;ratioP2
12445;SDS011;6287;50.984;7.022;2022-09-17T00:01:17;1.07;;;0.97;;
12445;SDS011;6287;50.984;7.022;2022-09-17T00:03:47;0.90;;;0.83;;
12445;SDS011;6287;50.984;7.022;2022-09-17T00:06:16;2.43;;;0.90;;
12445;SDS011;6287;50.984;7.022;2022-09-17T00:08:45;2.93;;;0.87;;
12445;SDS011;6287;50.984;7.022;2022-09-17T00:11:21;1.13;;;0.83;;
12445;SDS011;6287;50.984;7.022;2022-09-17T00:13:49;2.27;;;0.60;;
12445;SDS011;6287;50.984;7.022;2022-09-17T00:16:27;2.57;;;1.10;;
12445;SDS011;6287;50.984;7.022;2022-09-17T00:18:58;3.27;;;0.77;;
12445;SDS011;6287;50.984;7.022;2022-09-17T00:21:24;1.70;;;0.93;;
12445;SDS011;6287;50.984;7.022;2022-09-17T00:23:57;1.30;;;0.83;;
12445;SDS011;6287;50.984;7.022;2022-09-17T00:26:26;4.00;;;0.90;;
12445;SDS011;6287;50.984;7.022;2022-09-17T00:28:53;4.33;;;1.13;;
12445;SDS011;6287;50.984;7.022;2022-09-17T00:31:20;4.13;;;0.70;;
12445;SDS011;6287;50.984;7.022;2022-09-17T00:33:49;1.83;;;0.80;;
12445;SDS011;6287;50.984;7.022;2022-09-17T00:36:20;1.20;;;0.93;;
12445;SDS011;6287;50.984;7.022;2022-09-17T00:38:50;2.10;;;0.80;;
12445;SDS011;6287;50.984;7.022;2022-09-17T00:41:21;0.90;;;0.70;;
12445;SDS011;6287;50.984;7.022;2022-09-17T00:43:49;5.13;;;0.83;;
12445;SDS011;6287;50.984;7.022;2022-09-17T00:49:16;2.93;;;1.07;;
12445;SDS011;6287;50.984;7.022;2022-09-17T00:51:56;1.27;;;0.80;;
12445;SDS011;6287;50.984;7.022;2022-09-17T00:54:27;5.93;;;1.00;;
12445;SDS011;6287;50.984;7.022;2022-09-17T00:56:56;2.23;;;1.00;;
12445;SDS011;6287;50.984;7.022;2022-09-17T00:59:22;1.93;;;1.00;;
12445;SDS011;6287;50.984;7.022;2022-09-17T01:01:48;4.20;;;1.00;;
12445;SDS011;6287;50.984;7.022;2022-09-17T01:04:18;1.83;;;0.97;;
12445;SDS011;6287;50.984;7.022;2022-09-17T01:14:30;2.87;;;1.20;;
12445;SDS011;6287;50.984;7.022;2022-09-17T01:34:24;3.20;;;1.30;;
12445;SDS011;6287;50.984;7.022;2022-09-17T01:42:26;2.57;;;1.93;;
12445;SDS011;6287;50.984;7.022;2022-09-17T01:47:41;4.03;;;2.03;;
12445;SDS011;6287;50.984;7.022;2022-09-17T01:50:15;3.37;;;2.03;;
12445;SDS011;6287;50.984;7.022;2022-09-17T01:52:46;2.20;;;1.97;;
12445;SDS011;6287;50.984;7.022;2022-09-17T01:55:17;2.20;;;1.90;;
12445;SDS011;6287;50.984;7.022;2022-09-17T01:57:55;2.07;;;1.77;;
12445;SDS011;6287;50.984;7.022;2022-09-17T02:00:23;2.93;;;1.70;;
12445;SDS011;6287;50.984;7.022;2022-09-17T02:05:25;2.00;;;1.60;;
12445;SDS011;6287;50.984;7.022;2022-09-17T02:08:18;4.07;;;1.40;;
12445;SDS011;6287;50.984;7.022;2022-09-17T02:10:48;1.83;;;1.03;;
12445;SDS011;6287;50.984;7.022;2022-09-17T02:13:21;1.67;;;1.30;;
12445;SDS011;6287;50.984;7.022;2022-09-17T02:16:00;1.50;;;1.10;;
12445;SDS011;6287;50.984;7.022;2022-09-17T02:18:36;2.30;;;1.10;;
12445;SDS011;6287;50.984;7.022;2022-09-17T02:21:13;3.80;;;1.40;;
12445;SDS011;6287;50.984;7.022;2022-09-17T02:23:51;1.40;;;1.30;;
12445;SDS011;6287;50.984;7.022;2022-09-17T02:26:33;2.50;;;1.60;;
12445;SDS011;6287;50.984;7.022;2022-09-17T02:29:10;2.10;;;1.80;;
12445;SDS011;6287;50.984;7.022;2022-09-17T02:31:47;2.47;;;1.93;;
12445;SDS011;6287;50.984;7.022;2022-09-17T02:34:15;3.80;;;1.80;;
12445;SDS011;6287;50.984;7.022;2022-09-17T02:36:41;4.33;;;2.00;;
12445;SDS011;6287;50.984;7.022;2022-09-17T02:39:07;6.03;;;1.90;;
12445;SDS011;6287;50.984;7.022;2022-09-17T02:44:33;2.30;;;2.10;;
12445;SDS011;6287;50.984;7.022;2022-09-17T02:47:14;1.70;;;1.60;;
12445;SDS011;6287;50.984;7.022;2022-09-17T02:55:17;1.80;;;1.67;;
12445;SDS011;6287;50.984;7.022;2022-09-17T03:00:37;3.57;;;1.57;;
12445;SDS011;6287;50.984;7.022;2022-09-17T03:03:16;3.73;;;1.93;;
12445;SDS011;6287;50.984;7.022;2022-09-17T03:05:47;3.77;;;1.77;;
12445;SDS011;6287;50.984;7.022;2022-09-17T03:08:14;3.67;;;1.70;;
12445;SDS011;6287;50.984;7.022;2022-09-17T03:10:44;1.90;;;1.80;;
12445;SDS011;6287;50.984;7.022;2022-09-17T03:13:13;3.93;;;1.67;;
12445;SDS011;6287;50.984;7.022;2022-09-17T03:15:39;4.43;;;1.90;;
12445;SDS011;6287;50.984;7.022;2022-09-17T03:18:05;6.90;;;1.90;;
12445;SDS011;6287;50.984;7.022;2022-09-17T03:20:31;3.33;;;1.50;;
12445;SDS011;6287;50.984;7.022;2022-09-17T03:22:58;4.23;;;1.97;;
12445;SDS011;6287;50.984;7.022;2022-09-17T03:25:26;6.20;;;2.00;;
12445;SDS011;6287;50.984;7.022;2022-09-17T03:27:54;4.13;;;1.90;;
12445;SDS011;6287;50.984;7.022;2022-09-17T03:30:24;3.20;;;2.00;;
12445;SDS011;6287;50.984;7.022;2022-09-17T03:32:50;3.70;;;1.40;;
12445;SDS011;6287;50.984;7.022;2022-09-17T03:35:17;5.93;;;1.50;;
12445;SDS011;6287;50.984;7.022;2022-09-17T03:37:45;5.30;;;1.30;;
12445;SDS011;6287;50.984;7.022;2022-09-17T03:40:11;3.23;;;0.90;;
12445;SDS011;6287;50.984;7.022;2022-09-17T03:42:39;2.67;;;1.07;;
12445;SDS011;6287;50.984;7.022;2022-09-17T03:45:10;4.30;;;1.30;;
12445;SDS011;6287;50.984;7.022;2022-09-17T03:47:36;4.47;;;1.27;;
12445;SDS011;6287;50.984;7.022;2022-09-17T03:50:01;7.37;;;1.27;;
12445;SDS011;6287;50.984;7.022;2022-09-17T03:52:33;2.37;;;1.40;;
12445;SDS011;6287;50.984;7.022;2022-09-17T03:54:59;4.00;;;1.30;;
12445;SDS011;6287;50.984;7.022;2022-09-17T03:57:27;2.27;;;1.13;;
12445;SDS011;6287;50.984;7.022;2022-09-17T03:59:56;1.40;;;1.20;;
12445;SDS011;6287;50.984;7.022;2022-09-17T04:02:21;3.00;;;1.83;;
12445;SDS011;6287;50.984;7.022;2022-09-17T04:04:47;5.90;;;1.43;;
12445;SDS011;6287;50.984;7.022;2022-09-17T04:07:13;4.73;;;1.10;;
12445;SDS011;6287;50.984;7.022;2022-09-17T04:09:38;4.00;;;1.30;;
12445;SDS011;6287;50.984;7.022;2022-09-17T04:12:04;4.43;;;1.00;;
12445;SDS011;6287;50.984;7.022;2022-09-17T04:14:29;4.27;;;1.20;;
12445;SDS011;6287;50.984;7.022;2022-09-17T04:16:56;3.93;;;1.03;;
12445;SDS011;6287;50.984;7.022;2022-09-17T04:19:25;1.23;;;0.80;;
12445;SDS011;6287;50.984;7.022;2022-09-17T04:21:52;2.30;;;0.93;;
12445;SDS011;6287;50.984;7.022;2022-09-17T04:24:20;2.33;;;1.30;;
12445;SDS011;6287;50.984;7.022;2022-09-17T04:26:48;2.13;;;1.00;;
12445;SDS011;6287;50.984;7.022;2022-09-17T04:29:16;2.43;;;1.10;;
12445;SDS011;6287;50.984;7.022;2022-09-17T04:31:44;3.27;;;0.97;;
12445;SDS011;6287;50.984;7.022;2022-09-17T04:34:10;5.07;;;1.17;;
12445;SDS011;6287;50.984;7.022;2022-09-17T04:36:38;5.67;;;1.90;;
12445;SDS011;6287;50.984;7.022;2022-09-17T04:39:04;1.93;;;1.20;;
12445;SDS011;6287;50.984;7.022;2022-09-17T04:41:31;2.53;;;1.60;;
12445;SDS011;6287;50.984;7.022;2022-09-17T04:43:59;3.47;;;1.33;;
12445;SDS011;6287;50.984;7.022;2022-09-17T04:46:27;5.90;;;2.13;;
12445;SDS011;6287;50.984;7.022;2022-09-17T04:48:53;3.80;;;1.50;;
12445;SDS011;6287;50.984;7.022;2022-09-17T04:51:21;2.10;;;1.50;;
12445;SDS011;6287;50.984;7.022;2022-09-17T04:53:49;6.50;;;1.30;;
12445;SDS011;6287;50.984;7.022;2022-09-17T04:56:14;2.17;;;1.27;;
12445;SDS011;6287;50.984;7.022;2022-09-17T04:58:40;4.57;;;1.70;;
12445;SDS011;6287;50.984;7.022;2022-09-17T05:01:06;1.40;;;1.20;;
12445;SDS011;6287;50.984;7.022;2022-09-17T05:03:37;4.00;;;1.50;;
12445;SDS011;6287;50.984;7.022;2022-09-17T05:06:03;2.17;;;1.50;;
12445;SDS011;6287;50.984;7.022;2022-09-17T05:08:31;1.60;;;1.23;;
12445;SDS011;6287;50.984;7.022;2022-09-17T05:10:59;1.77;;;1.03;;
12445;SDS011;6287;50.984;7.022;2022-09-17T05:13:25;5.17;;;1.20;;
12445;SDS011;6287;50.984;7.022;2022-09-17T05:15:53;4.57;;;1.60;;
12445;SDS011;6287;50.984;7.022;2022-09-17T05:18:25;6.70;;;2.10;;
12445;SDS011;6287;50.984;7.022;2022-09-17T05:20:53;2.23;;;1.30;;
12445;SDS011;6287;50.984;7.022;2022-09-17T05:23:21;3.40;;;1.30;;
12445;SDS011;6287;50.984;7.022;2022-09-17T05:25:46;3.73;;;1.20;;
12445;SDS011;6287;50.984;7.022;2022-09-17T05:28:12;2.17;;;1.73;;
12445;SDS011;6287;50.984;7.022;2022-09-17T05:30:38;4.20;;;1.67;;
12445;SDS011;6287;50.984;7.022;2022-09-17T05:33:06;4.30;;;1.47;;
12445;SDS011;6287;50.984;7.022;2022-09-17T05:35:32;1.87;;;1.27;;
12445;SDS011;6287;50.984;7.022;2022-09-17T05:38:01;1.60;;;1.13;;
12445;SDS011;6287;50.984;7.022;2022-09-17T05:40:32;3.37;;;1.53;;
12445;SDS011;6287;50.984;7.022;2022-09-17T05:42:58;2.37;;;1.20;;
12445;SDS011;6287;50.984;7.022;2022-09-17T05:45:25;1.63;;;1.30;;
12445;SDS011;6287;50.984;7.022;2022-09-17T05:47:54;4.00;;;1.57;;
12445;SDS011;6287;50.984;7.022;2022-09-17T05:50:23;1.47;;;1.37;;
12445;SDS011;6287;50.984;7.022;2022-09-17T05:52:52;1.83;;;1.40;;
12445;SDS011;6287;50.984;7.022;2022-09-17T05:55:19;2.10;;;1.30;;
12445;SDS011;6287;50.984;7.022;2022-09-17T05:57:46;5.70;;;1.27;;
12445;SDS011;6287;50.984;7.022;2022-09-17T06:00:15;3.73;;;1.17;;
12445;SDS011;6287;50.984;7.022;2022-09-17T06:02:41;3.70;;;1.00;;
12445;SDS011;6287;50.984;7.022;2022-09-17T06:05:07;2.03;;;0.80;;
12445;SDS011;6287;50.984;7.022;2022-09-17T06:07:35;2.67;;;1.10;;
12445;SDS011;6287;50.984;7.022;2022-09-17T06:10:02;0.83;;;0.83;;
12445;SDS011;6287;50.984;7.022;2022-09-17T06:12:32;2.60;;;0.67;;
12445;SDS011;6287;50.984;7.022;2022-09-17T06:14:59;0.97;;;0.83;;
12445;SDS011;6287;50.984;7.022;2022-09-17T06:17:28;4.67;;;0.80;;
12445;SDS011;6287;50.984;7.022;2022-09-17T06:19:58;5.83;;;0.97;;
12445;SDS011;6287;50.984;7.022;2022-09-17T06:22:23;2.87;;;0.80;;
12445;SDS011;6287;50.984;7.022;2022-09-17T06:24:51;3.73;;;1.10;;
12445;SDS011;6287;50.984;7.022;2022-09-17T06:27:19;4.03;;;0.70;;
12445;SDS011;6287;50.984;7.022;2022-09-17T06:29:45;3.27;;;1.10;;
12445;SDS011;6287;50.984;7.022;2022-09-17T06:32:10;2.90;;;0.70;;
12445;SDS011;6287;50.984;7.022;2022-09-17T06:34:40;0.87;;;0.80;;
12445;SDS011;6287;50.984;7.022;2022-09-17T06:37:06;1.77;;;0.90;;
12445;SDS011;6287;50.984;7.022;2022-09-17T06:39:34;3.33;;;0.90;;
12445;SDS011;6287;50.984;7.022;2022-09-17T06:42:02;3.03;;;1.00;;
12445;SDS011;6287;50.984;7.022;2022-09-17T06:44:28;2.50;;;1.27;;
12445;SDS011;6287;50.984;7.022;2022-09-17T06:46:56;1.67;;;0.90;;
12445;SDS011;6287;50.984;7.022;2022-09-17T06:49:22;3.00;;;1.10;;
12445;SDS011;6287;50.984;7.022;2022-09-17T06:51:50;1.40;;;0.90;;
12445;SDS011;6287;50.984;7.022;2022-09-17T06:54:16;1.27;;;0.80;;
12445;SDS011;6287;50.984;7.022;2022-09-17T06:56:44;3.93;;;0.80;;
12445;SDS011;6287;50.984;7.022;2022-09-17T06:59:11;3.57;;;1.27;;
12445;SDS011;6287;50.984;7.022;2022-09-17T07:01:40;1.60;;;0.60;;
12445;SDS011;6287;50.984;7.022;2022-09-17T07:04:05;1.40;;;0.73;;
12445;SDS011;6287;50.984;7.022;2022-09-17T07:06:31;2.37;;;0.60;;
12445;SDS011;6287;50.984;7.022;2022-09-17T07:08:57;1.33;;;0.80;;
12445;SDS011;6287;50.984;7.022;2022-09-17T07:11:23;3.20;;;0.70;;
12445;SDS011;6287;50.984;7.022;2022-09-17T07:13:51;4.07;;;0.90;;
12445;SDS011;6287;50.984;7.022;2022-09-17T07:16:19;4.03;;;0.50;;
12445;SDS011;6287;50.984;7.022;2022-09-17T07:18:45;3.00;;;0.70;;
12445;SDS011;6287;50.984;7.022;2022-09-17T07:21:10;2.63;;;0.90;;
12445;SDS011;6287;50.984;7.022;2022-09-17T07:23:36;2.23;;;0.60;;
12445;SDS011;6287;50.984;7.022;2022-09-17T07:26:03;2.97;;;0.80;;
12445;SDS011;6287;50.984;7.022;2022-09-17T07:28:31;2.97;;;1.13;;
12445;SDS011;6287;50.984;7.022;2022-09-17T07:30:57;2.00;;;1.00;;
12445;SDS011;6287;50.984;7.022;2022-09-17T07:33:23;1.20;;;1.07;;
12445;SDS011;6287;50.984;7.022;2022-09-17T07:35:54;6.67;;;1.23;;
12445;SDS011;6287;50.984;7.022;2022-09-17T07:38:21;1.27;;;0.90;;
12445;SDS011;6287;50.984;7.022;2022-09-17T07:40:59;3.10;;;1.00;;
12445;SDS011;6287;50.984;7.022;2022-09-17T07:43:30;1.13;;;1.03;;
12445;SDS011;6287;50.984;7.022;2022-09-17T07:46:00;3.43;;;1.13;;
12445;SDS011;6287;50.984;7.022;2022-09-17T07:48:31;5.00;;;0.97;;
12445;SDS011;6287;50.984;7.022;2022-09-17T07:50:57;4.23;;;1.23;;
12445;SDS011;6287;50.984;7.022;2022-09-17T07:53:25;3.67;;;1.00;;
12445;SDS011;6287;50.984;7.022;2022-09-17T07:55:54;2.70;;;0.77;;
12445;SDS011;6287;50.984;7.022;2022-09-17T07:58:28;2.60;;;1.10;;
12445;SDS011;6287;50.984;7.022;2022-09-17T08:01:01;2.83;;;1.20;;
12445;SDS011;6287;50.984;7.022;2022-09-17T08:03:28;5.07;;;0.90;;
12445;SDS011;6287;50.984;7.022;2022-09-17T08:05:59;3.10;;;1.00;;
12445;SDS011;6287;50.984;7.022;2022-09-17T08:08:28;2.93;;;1.07;;
12445;SDS011;6287;50.984;7.022;2022-09-17T08:10:58;3.53;;;1.17;;
12445;SDS011;6287;50.984;7.022;2022-09-17T08:13:27;3.20;;;0.97;;
12445;SDS011;6287;50.984;7.022;2022-09-17T08:16:13;2.47;;;0.70;;
12445;SDS011;6287;50.984;7.022;2022-09-17T08:18:40;3.70;;;1.07;;
12445;SDS011;6287;50.984;7.022;2022-09-17T08:21:09;1.73;;;0.87;;
12445;SDS011;6287;50.984;7.022;2022-09-17T08:23:37;5.37;;;0.87;;
12445;SDS011;6287;50.984;7.022;2022-09-17T08:26:10;2.70;;;0.80;;
12445;SDS011;6287;50.984;7.022;2022-09-17T08:28:43;3.10;;;0.87;;
12445;SDS011;6287;50.984;7.022;2022-09-17T08:31:10;3.50;;;0.97;;
12445;SDS011;6287;50.984;7.022;2022-09-17T08:33:39;3.83;;;0.70;;
12445;SDS011;6287;50.984;7.022;2022-09-17T08:36:09;1.57;;;0.50;;
12445;SDS011;6287;50.984;7.022;2022-09-17T08:38:36;1.03;;;0.73;;
12445;SDS011;6287;50.984;7.022;2022-09-17T08:46:25;1.60;;;0.70;;
12445;SDS011;6287;50.984;7.022;2022-09-17T08:54:29;1.30;;;0.70;;
12445;SDS011;6287;50.984;7.022;2022-09-17T08:57:15;4.43;;;0.80;;
12445;SDS011;6287;50.984;7.022;2022-09-17T09:00:12;2.53;;;0.70;;
12445;SDS011;6287;50.984;7.022;2022-09-17T09:03:13;1.40;;;0.70;;
12445;SDS011;6287;50.984;7.022;2022-09-17T09:05:44;1.93;;;0.50;;
12445;SDS011;6287;50.984;7.022;2022-09-17T09:11:27;2.30;;;0.80;;
12445;SDS011;6287;50.984;7.022;2022-09-17T09:16:53;1.80;;;0.63;;
12445;SDS011;6287;50.984;7.022;2022-09-17T09:24:38;1.83;;;0.70;;
12445;SDS011;6287;50.984;7.022;2022-09-17T09:32:28;2.70;;;0.30;;
12445;SDS011;6287;50.984;7.022;2022-09-17T09:35:22;1.83;;;0.40;;
12445;SDS011;6287;50.984;7.022;2022-09-17T09:37:53;3.07;;;0.93;;
12445;SDS011;6287;50.984;7.022;2022-09-17T09:42:54;1.40;;;0.60;;
12445;SDS011;6287;50.984;7.022;2022-09-17T09:45:45;1.80;;;0.63;;
12445;SDS011;6287;50.984;7.022;2022-09-17T09:59:32;1.02;;;0.52;;
12445;SDS011;6287;50.984;7.022;2022-09-17T10:02:03;1.40;;;0.60;;
12445;SDS011;6287;50.984;7.022;2022-09-17T10:04:29;2.07;;;0.60;;
12445;SDS011;6287;50.984;7.022;2022-09-17T10:07:00;1.60;;;0.60;;
12445;SDS011;6287;50.984;7.022;2022-09-17T10:09:34;2.93;;;0.50;;
12445;SDS011;6287;50.984;7.022;2022-09-17T10:12:05;1.70;;;0.50;;
12445;SDS011;6287;50.984;7.022;2022-09-17T10:14:37;2.70;;;0.70;;
12445;SDS011;6287;50.984;7.022;2022-09-17T10:19:41;1.37;;;0.50;;
12445;SDS011;6287;50.984;7.022;2022-09-17T10:22:22;1.37;;;0.60;;
12445;SDS011;6287;50.984;7.022;2022-09-17T10:24:59;1.00;;;0.53;;
12445;SDS011;6287;50.984;7.022;2022-09-17T10:27:26;1.53;;;0.80;;
12445;SDS011;6287;50.984;7.022;2022-09-17T10:29:59;2.50;;;0.70;;
12445;SDS011;6287;50.984;7.022;2022-09-17T10:32:37;2.77;;;0.50;;
12445;SDS011;6287;50.984;7.022;2022-09-17T10:42:48;2.70;;;0.97;;
12445;SDS011;6287;50.984;7.022;2022-09-17T10:45:34;2.88;;;0.80;;
12445;SDS011;6287;50.984;7.022;2022-09-17T10:48:11;0.47;;;0.47;;
12445;SDS011;6287;50.984;7.022;2022-09-17T10:50:40;0.40;;;0.40;;
12445;SDS011;6287;50.984;7.022;2022-09-17T10:53:14;1.17;;;0.40;;
12445;SDS011;6287;50.984;7.022;2022-09-17T10:55:45;0.90;;;0.40;;
12445;SDS011;6287;50.984;7.022;2022-09-17T11:18:04;1.95;;;0.80;;
12445;SDS011;6287;50.984;7.022;2022-09-17T11:26:31;1.90;;;0.60;;
12445;SDS011;6287;50.984;7.022;2022-09-17T11:35:01;1.80;;;0.43;;
12445;SDS011;6287;50.984;7.022;2022-09-17T11:37:45;0.65;;;0.50;;
12445;SDS011;6287;50.984;7.022;2022-09-17T11:40:16;3.08;;;0.80;;
12445;SDS011;6287;50.984;7.022;2022-09-17T11:42:47;1.20;;;0.60;;
12445;SDS011;6287;50.984;7.022;2022-09-17T11:50:58;1.58;;;0.30;;
12445;SDS011;6287;50.984;7.022;2022-09-17T11:54:00;1.52;;;0.60;;
12445;SDS011;6287;50.984;7.022;2022-09-17T11:56:40;0.40;;;0.40;;
12445;SDS011;6287;50.984;7.022;2022-09-17T12:07:29;1.10;;;0.30;;
12445;SDS011;6287;50.984;7.022;2022-09-17T12:10:19;1.07;;;0.50;;
12445;SDS011;6287;50.984;7.022;2022-09-17T12:15:41;0.30;;;0.30;;
12445;SDS011;6287;50.984;7.022;2022-09-17T12:20:42;1.00;;;0.90;;
12445;SDS011;6287;50.984;7.022;2022-09-17T12:23:14;3.37;;;2.37;;
12445;SDS011;6287;50.984;7.022;2022-09-17T12:26:00;2.53;;;1.20;;
12445;SDS011;6287;50.984;7.022;2022-09-17T12:36:49;0.60;;;0.60;;
12445;SDS011;6287;50.984;7.022;2022-09-17T12:53:05;1.58;;;0.60;;
12445;SDS011;6287;50.984;7.022;2022-09-17T13:03:57;1.95;;;0.77;;
12445;SDS011;6287;50.984;7.022;2022-09-17T13:09:29;0.50;;;0.20;;
12445;SDS011;6287;50.984;7.022;2022-09-17T13:23:36;1.77;;;0.47;;
12445;SDS011;6287;50.984;7.022;2022-09-17T13:26:06;0.33;;;0.33;;
12445;SDS011;6287;50.984;7.022;2022-09-17T13:28:45;0.20;;;0.20;;
12445;SDS011;6287;50.984;7.022;2022-09-17T13:31:17;0.80;;;0.43;;
12445;SDS011;6287;50.984;7.022;2022-09-17T13:45:27;1.43;;;0.50;;
12445;SDS011;6287;50.984;7.022;2022-09-17T13:50:27;0.20;;;0.20;;
12445;SDS011;6287;50.984;7.022;2022-09-17T13:55:48;0.87;;;0.40;;
12445;SDS011;6287;50.984;7.022;2022-09-17T14:00:54;1.27;;;0.37;;
12445;SDS011;6287;50.984;7.022;2022-09-17T14:22:12;0.85;;;0.82;;
12445;SDS011;6287;50.984;7.022;2022-09-17T14:24:46;1.95;;;1.00;;
12445;SDS011;6287;50.984;7.022;2022-09-17T14:35:11;0.90;;;0.90;;
12445;SDS011;6287;50.984;7.022;2022-09-17T14:37:40;0.70;;;0.70;;
12445;SDS011;6287;50.984;7.022;2022-09-17T14:40:10;1.10;;;1.00;;
12445;SDS011;6287;50.984;7.022;2022-09-17T14:42:43;1.83;;;0.90;;
12445;SDS011;6287;50.984;7.022;2022-09-17T14:45:19;3.25;;;1.00;;
12445;SDS011;6287;50.984;7.022;2022-09-17T14:53:44;0.83;;;0.40;;
12445;SDS011;6287;50.984;7.022;2022-09-17T14:56:32;0.90;;;0.70;;
12445;SDS011;6287;50.984;7.022;2022-09-17T14:59:03;0.57;;;0.57;;
12445;SDS011;6287;50.984;7.022;2022-09-17T15:01:29;1.93;;;0.67;;
12445;SDS011;6287;50.984;7.022;2022-09-17T15:06:39;0.40;;;0.40;;
12445;SDS011;6287;50.984;7.022;2022-09-17T15:09:15;0.63;;;0.40;;
12445;SDS011;6287;50.984;7.022;2022-09-17T15:11:52;1.00;;;0.40;;
12445;SDS011;6287;50.984;7.022;2022-09-17T15:14:22;1.00;;;0.50;;
12445;SDS011;6287;50.984;7.022;2022-09-17T15:16:53;0.33;;;0.27;;
12445;SDS011;6287;50.984;7.022;2022-09-17T15:19:29;1.77;;;0.80;;
12445;SDS011;6287;50.984;7.022;2022-09-17T15:22:02;1.10;;;0.80;;
12445;SDS011;6287;50.984;7.022;2022-09-17T15:27:30;2.47;;;0.63;;
12445;SDS011;6287;50.984;7.022;2022-09-17T15:33:02;1.60;;;0.60;;
12445;SDS011;6287;50.984;7.022;2022-09-17T15:35:31;0.40;;;0.40;;
12445;SDS011;6287;50.984;7.022;2022-09-17T15:38:03;2.47;;;0.70;;
12445;SDS011;6287;50.984;7.022;2022-09-17T15:40:50;2.87;;;0.60;;
12445;SDS011;6287;50.984;7.022;2022-09-17T15:43:32;4.37;;;0.70;;
12445;SDS011;6287;50.984;7.022;2022-09-17T15:46:18;0.67;;;0.67;;
12445;SDS011;6287;50.984;7.022;2022-09-17T15:49:02;1.17;;;0.50;;
12445;SDS011;6287;50.984;7.022;2022-09-17T15:51:33;2.87;;;0.63;;
12445;SDS011;6287;50.984;7.022;2022-09-17T15:54:04;0.60;;;0.57;;
12445;SDS011;6287;50.984;7.022;2022-09-17T15:56:34;1.70;;;0.80;;
12445;SDS011;6287;50.984;7.022;2022-09-17T15:59:24;2.63;;;0.70;;
12445;SDS011;6287;50.984;7.022;2022-09-17T16:01:54;3.43;;;1.10;;
12445;SDS011;6287;50.984;7.022;2022-09-17T16:04:25;3.23;;;0.70;;
12445;SDS011;6287;50.984;7.022;2022-09-17T16:09:55;3.57;;;0.70;;
12445;SDS011;6287;50.984;7.022;2022-09-17T16:12:23;1.53;;;0.70;;
12445;SDS011;6287;50.984;7.022;2022-09-17T16:14:55;1.63;;;0.83;;
12445;SDS011;6287;50.984;7.022;2022-09-17T16:17:23;2.43;;;0.80;;
12445;SDS011;6287;50.984;7.022;2022-09-17T16:19:53;2.93;;;1.00;;
12445;SDS011;6287;50.984;7.022;2022-09-17T16:22:20;1.77;;;1.10;;
12445;SDS011;6287;50.984;7.022;2022-09-17T16:24:46;3.83;;;1.40;;
12445;SDS011;6287;50.984;7.022;2022-09-17T16:27:15;2.33;;;1.00;;
12445;SDS011;6287;50.984;7.022;2022-09-17T16:30:05;2.60;;;0.90;;
12445;SDS011;6287;50.984;7.022;2022-09-17T16:32:33;2.40;;;1.00;;
12445;SDS011;6287;50.984;7.022;2022-09-17T16:34:59;1.80;;;0.60;;
12445;SDS011;6287;50.984;7.022;2022-09-17T16:37:27;1.73;;;0.60;;
12445;SDS011;6287;50.984;7.022;2022-09-17T16:39:53;0.43;;;0.40;;
12445;SDS011;6287;50.984;7.022;2022-09-17T16:42:18;4.20;;;0.63;;
12445;SDS011;6287;50.984;7.022;2022-09-17T16:44:46;2.10;;;0.77;;
12445;SDS011;6287;50.984;7.022;2022-09-17T16:47:14;1.03;;;0.50;;
12445;SDS011;6287;50.984;7.022;2022-09-17T16:49:42;2.20;;;0.50;;
12445;SDS011;6287;50.984;7.022;2022-09-17T16:52:07;3.70;;;0.57;;
12445;SDS011;6287;50.984;7.022;2022-09-17T16:54:33;1.17;;;0.57;;
12445;SDS011;6287;50.984;7.022;2022-09-17T16:57:01;3.87;;;0.90;;
12445;SDS011;6287;50.984;7.022;2022-09-17T16:59:29;2.93;;;0.83;;
12445;SDS011;6287;50.984;7.022;2022-09-17T17:01:54;3.10;;;0.70;;
12445;SDS011;6287;50.984;7.022;2022-09-17T17:04:20;1.03;;;0.50;;
12445;SDS011;6287;50.984;7.022;2022-09-17T17:06:46;1.93;;;0.50;;
12445;SDS011;6287;50.984;7.022;2022-09-17T17:09:14;5.33;;;1.00;;
12445;SDS011;6287;50.984;7.022;2022-09-17T17:11:44;1.97;;;0.70;;
12445;SDS011;6287;50.984;7.022;2022-09-17T17:14:10;3.33;;;0.73;;
12445;SDS011;6287;50.984;7.022;2022-09-17T17:16:37;1.60;;;1.00;;
12445;SDS011;6287;50.984;7.022;2022-09-17T17:19:07;1.47;;;0.50;;
12445;SDS011;6287;50.984;7.022;2022-09-17T17:21:35;3.90;;;0.90;;
12445;SDS011;6287;50.984;7.022;2022-09-17T17:24:02;1.00;;;0.60;;
12445;SDS011;6287;50.984;7.022;2022-09-17T17:26:31;3.77;;;0.60;;
12445;SDS011;6287;50.984;7.022;2022-09-17T17:29:00;2.43;;;0.90;;
12445;SDS011;6287;50.984;7.022;2022-09-17T17:31:30;4.10;;;1.00;;
12445;SDS011;6287;50.984;7.022;2022-09-17T17:33:58;2.50;;;0.70;;
12445;SDS011;6287;50.984;7.022;2022-09-17T17:36:28;3.13;;;0.60;;
12445;SDS011;6287;50.984;7.022;2022-09-17T17:38:56;2.57;;;0.60;;
12445;SDS011;6287;50.984;7.022;2022-09-17T17:41:22;2.17;;;0.53;;
12445;SDS011;6287;50.984;7.022;2022-09-17T17:43:53;2.57;;;0.70;;
12445;SDS011;6287;50.984;7.022;2022-09-17T17:46:23;5.23;;;0.70;;
12445;SDS011;6287;50.984;7.022;2022-09-17T17:48:49;4.00;;;0.53;;
12445;SDS011;6287;50.984;7.022;2022-09-17T17:51:15;1.70;;;0.70;;
12445;SDS011;6287;50.984;7.022;2022-09-17T17:53:43;2.70;;;0.90;;
12445;SDS011;6287;50.984;7.022;2022-09-17T17:56:10;2.50;;;0.70;;
12445;SDS011;6287;50.984;7.022;2022-09-17T17:58:36;1.53;;;0.50;;
12445;SDS011;6287;50.984;7.022;2022-09-17T18:01:24;1.57;;;0.70;;
12445;SDS011;6287;50.984;7.022;2022-09-17T18:03:54;1.43;;;0.53;;
12445;SDS011;6287;50.984;7.022;2022-09-17T18:06:21;3.60;;;0.60;;
12445;SDS011;6287;50.984;7.022;2022-09-17T18:08:46;0.73;;;0.60;;
12445;SDS011;6287;50.984;7.022;2022-09-17T18:11:12;1.20;;;0.60;;
12445;SDS011;6287;50.984;7.022;2022-09-17T18:13:40;0.50;;;0.50;;
12445;SDS011;6287;50.984;7.022;2022-09-17T18:16:09;1.03;;;0.70;;
12445;SDS011;6287;50.984;7.022;2022-09-17T18:18:37;1.27;;;0.87;;
12445;SDS011;6287;50.984;7.022;2022-09-17T18:21:07;1.27;;;0.60;;
12445;SDS011;6287;50.984;7.022;2022-09-17T18:23:36;2.00;;;0.43;;
12445;SDS011;6287;50.984;7.022;2022-09-17T18:26:06;4.43;;;1.23;;
12445;SDS011;6287;50.984;7.022;2022-09-17T18:28:35;2.23;;;0.70;;
12445;SDS011;6287;50.984;7.022;2022-09-17T18:31:09;0.40;;;0.40;;
12445;SDS011;6287;50.984;7.022;2022-09-17T18:33:40;2.13;;;0.90;;
12445;SDS011;6287;50.984;7.022;2022-09-17T18:36:08;2.37;;;0.73;;
12445;SDS011;6287;50.984;7.022;2022-09-17T18:38:41;0.67;;;0.40;;
12445;SDS011;6287;50.984;7.022;2022-09-17T18:41:10;1.03;;;0.63;;
12445;SDS011;6287;50.984;7.022;2022-09-17T18:43:40;4.07;;;0.90;;
12445;SDS011;6287;50.984;7.022;2022-09-17T18:46:06;3.73;;;1.00;;
12445;SDS011;6287;50.984;7.022;2022-09-17T18:48:32;3.77;;;0.70;;
12445;SDS011;6287;50.984;7.022;2022-09-17T18:50:59;2.33;;;0.70;;
12445;SDS011;6287;50.984;7.022;2022-09-17T18:53:27;3.60;;;0.80;;
12445;SDS011;6287;50.984;7.022;2022-09-17T18:55:58;5.63;;;1.10;;
12445;SDS011;6287;50.984;7.022;2022-09-17T18:58:37;3.90;;;1.00;;
12445;SDS011;6287;50.984;7.022;2022-09-17T19:01:04;1.90;;;0.57;;
12445;SDS011;6287;50.984;7.022;2022-09-17T19:03:34;2.13;;;0.80;;
12445;SDS011;6287;50.984;7.022;2022-09-17T19:06:00;3.10;;;1.57;;
12445;SDS011;6287;50.984;7.022;2022-09-17T19:08:31;2.90;;;0.90;;
12445;SDS011;6287;50.984;7.022;2022-09-17T19:10:56;2.57;;;0.80;;
12445;SDS011;6287;50.984;7.022;2022-09-17T19:13:22;3.97;;;1.20;;
12445;SDS011;6287;50.984;7.022;2022-09-17T19:15:56;1.67;;;0.87;;
12445;SDS011;6287;50.984;7.022;2022-09-17T19:18:23;3.13;;;0.97;;
12445;SDS011;6287;50.984;7.022;2022-09-17T19:20:51;6.53;;;1.37;;
12445;SDS011;6287;50.984;7.022;2022-09-17T19:23:22;4.83;;;1.10;;
12445;SDS011;6287;50.984;7.022;2022-09-17T19:25:47;1.03;;;0.93;;
12445;SDS011;6287;50.984;7.022;2022-09-17T19:28:15;3.77;;;0.83;;
12445;SDS011;6287;50.984;7.022;2022-09-17T19:30:41;1.87;;;1.03;;
12445;SDS011;6287;50.984;7.022;2022-09-17T19:33:06;1.30;;;0.93;;
12445;SDS011;6287;50.984;7.022;2022-09-17T19:35:32;2.80;;;1.33;;
12445;SDS011;6287;50.984;7.022;2022-09-17T19:37:57;3.17;;;1.00;;
12445;SDS011;6287;50.984;7.022;2022-09-17T19:40:23;2.43;;;0.90;;